createdAt,value
2019-04-21T00:01:18.260Z,56.30
2019-04-21T00:03:53.895Z,56.80
2019-04-21T00:06:41.127Z,56.40
2019-04-21T00:09:19.215Z,56.20
2019-04-21T00:11:48.234Z,56.50
2019-04-21T00:14:11.341Z,56.50
2019-04-21T00:16:34.771Z,57.30
2019-04-21T00:19:21.629Z,57.40
2019-04-21T00:21:58.128Z,57.80
2019-04-21T00:24:33.676Z,58.40
2019-04-21T00:27:11.181Z,59.20
2019-04-21T00:29:46.897Z,59.20
2019-04-21T00:32:11.468Z,60.00
2019-04-21T00:34:30.159Z,60.50
2019-04-21T00:37:12.104Z,60.70
2019-04-21T00:42:25.187Z,62.40
2019-04-21T00:44:54.222Z,63.70
2019-04-21T00:47:30.643Z,64.50
2019-04-21T00:50:03.099Z,64.50
2019-04-21T00:53:04.723Z,64.80
2019-04-21T00:55:59.422Z,65.40
2019-04-21T00:58:28.607Z,66.50
2019-04-21T01:00:51.074Z,67.10
2019-04-21T01:03:32.740Z,67.20
2019-04-21T01:06:19.103Z,67.10
2019-04-21T01:08:31.106Z,67.00
2019-04-21T01:10:55.375Z,66.80
2019-04-21T01:13:41.193Z,66.80
2019-04-21T01:16:07.270Z,66.80
2019-04-21T01:18:41.318Z,67.60
2019-04-21T01:20:50.554Z,67.80
2019-04-21T01:23:21.362Z,67.70
2019-04-21T01:26:06.864Z,67.70
2019-04-21T01:28:43.887Z,68.10
2019-04-21T01:31:14.925Z,69.20
2019-04-21T01:33:44.720Z,70.20
2019-04-21T01:36:18.118Z,69.40
2019-04-21T01:38:58.988Z,68.40
2019-04-21T01:41:29.603Z,67.20
2019-04-21T01:43:57.819Z,66.80
2019-04-21T01:46:25.621Z,66.30
2019-04-21T01:48:55.409Z,66.50
2019-04-21T01:51:32.119Z,65.90
2019-04-21T01:54:28.525Z,66.10
2019-04-21T01:57:03.388Z,65.90
2019-04-21T01:59:30.551Z,66.20
2019-04-21T02:02:10.718Z,66.70
2019-04-21T02:07:15.164Z,67.10
2019-04-21T02:09:44.369Z,67.20
2019-04-21T02:12:18.850Z,67.20
2019-04-21T02:15:00.425Z,67.20
2019-04-21T02:17:23.753Z,66.90
2019-04-21T02:19:51.833Z,67.00
2019-04-21T02:22:28.976Z,66.80
2019-04-21T02:25:00.959Z,66.90
2019-04-21T02:27:31.038Z,66.80
2019-04-21T02:30:14.595Z,67.10
2019-04-21T02:32:47.992Z,67.30
2019-04-21T02:35:25.524Z,67.00
2019-04-21T02:37:53.535Z,67.00
2019-04-21T02:42:56.023Z,68.00
2019-04-21T02:45:26.830Z,68.10
2019-04-21T02:48:06.277Z,68.50
2019-04-21T02:50:25.941Z,68.60
2019-04-21T03:00:44.933Z,69.90
2019-04-21T03:03:39.116Z,69.90
2019-04-21T03:06:06.097Z,70.00
2019-04-21T03:13:47.297Z,71.90
2019-04-21T03:17:03.454Z,72.40
2019-04-21T03:18:54.255Z,73.30
2019-04-21T03:21:21.598Z,73.90
2019-04-21T03:24:13.404Z,74.00
2019-04-21T03:29:05.690Z,74.70
2019-04-21T03:31:49.791Z,74.80
2019-04-21T03:36:47.749Z,74.50
2019-04-21T03:39:18.395Z,74.50
2019-04-21T03:41:37.771Z,74.80
2019-04-21T03:44:06.570Z,77.40
2019-04-21T03:46:41.448Z,77.10
2019-04-21T03:49:23.079Z,77.00
2019-04-21T03:52:03.893Z,77.00
2019-04-21T03:54:22.289Z,76.30
2019-04-21T03:59:19.711Z,77.60
2019-04-21T04:02:18.903Z,80.00
2019-04-21T04:04:53.576Z,80.90
2019-04-21T04:07:59.250Z,82.20
2019-04-21T04:10:22.065Z,82.50
2019-04-21T04:12:57.219Z,81.80
2019-04-21T04:15:31.452Z,81.10
2019-04-21T04:17:56.426Z,80.90
2019-04-21T04:20:28.086Z,81.10
2019-04-21T04:23:02.304Z,81.10
2019-04-21T04:28:08.563Z,83.00
2019-04-21T04:30:41.983Z,83.20
2019-04-21T04:33:07.879Z,83.10
2019-04-21T04:35:52.865Z,83.20
2019-04-21T04:38:39.271Z,83.40
2019-04-21T04:41:16.614Z,83.90
2019-04-21T04:43:37.148Z,84.50
2019-04-21T04:46:07.201Z,84.80
2019-04-21T04:48:45.218Z,84.20
2019-04-21T04:51:14.433Z,84.30
2019-04-21T04:53:43.930Z,84.60
2019-04-21T04:56:20.758Z,84.80
2019-04-21T05:04:10.321Z,84.90
2019-04-21T05:23:55.696Z,83.00
2019-04-21T05:26:29.950Z,83.50
2019-04-21T05:28:56.564Z,83.40
2019-04-21T05:31:44.681Z,83.30
2019-04-21T05:34:18.994Z,82.90
2019-04-21T05:37:07.192Z,83.20
2019-04-21T05:39:42.338Z,83.10
2019-04-21T05:42:09.072Z,83.30
2019-04-21T05:44:59.875Z,83.50
2019-04-21T05:47:35.479Z,83.90
2019-04-21T05:50:06.413Z,84.20
2019-04-21T05:52:53.620Z,83.80
2019-04-21T05:58:05.670Z,83.30
2019-04-21T06:00:55.983Z,83.60
2019-04-21T06:03:10.426Z,84.10
2019-04-21T06:05:45.362Z,84.20
2019-04-21T06:08:12.913Z,83.60
2019-04-21T06:10:48.780Z,82.80
2019-04-21T06:13:24.403Z,82.40
2019-04-21T06:15:54.654Z,82.00
2019-04-21T06:18:21.700Z,81.90
2019-04-21T06:20:54.734Z,83.00
2019-04-21T06:23:25.733Z,83.30
2019-04-21T06:26:09.443Z,83.90
2019-04-21T06:28:30.536Z,84.20
2019-04-21T06:31:05.958Z,85.40
2019-04-21T06:33:39.471Z,85.70
2019-04-21T06:36:41.417Z,84.50
2019-04-21T06:39:10.003Z,84.10
2019-04-21T06:44:09.541Z,81.90
2019-04-21T06:46:35.187Z,81.70
2019-04-21T06:49:08.068Z,80.10
2019-04-21T06:51:38.602Z,79.30
2019-04-21T06:54:16.097Z,78.80
2019-04-21T06:59:09.724Z,73.80
2019-04-21T07:01:52.802Z,73.00
2019-04-21T07:04:39.143Z,72.80
2019-04-21T07:06:57.413Z,68.10
2019-04-21T07:09:28.559Z,64.90
2019-04-21T07:11:56.498Z,62.30
2019-04-21T07:17:08.015Z,59.50
2019-04-21T07:19:35.297Z,58.50
2019-04-21T07:22:03.313Z,58.30
2019-04-21T07:24:37.293Z,57.10
2019-04-21T07:27:09.534Z,56.90
2019-04-21T07:29:39.513Z,56.30
2019-04-21T07:32:11.771Z,56.00
2019-04-21T07:34:47.629Z,55.30
2019-04-21T07:37:12.551Z,54.90
2019-04-21T07:39:46.560Z,54.30
2019-04-21T07:42:14.710Z,53.40
2019-04-21T07:44:39.466Z,52.20
2019-04-21T07:47:23.066Z,50.90
2019-04-21T07:50:03.394Z,50.40
2019-04-21T07:52:47.022Z,49.90
2019-04-21T07:55:18.660Z,49.30
2019-04-21T07:57:39.022Z,48.60
2019-04-21T08:00:21.053Z,47.90
2019-04-21T08:03:00.428Z,47.00
2019-04-21T08:05:31.333Z,46.20
2019-04-21T08:07:54.221Z,45.30
2019-04-21T08:10:22.507Z,45.20
2019-04-21T08:12:49.414Z,45.40
2019-04-21T08:15:30.032Z,45.90
2019-04-21T08:17:56.636Z,45.50
2019-04-21T08:20:28.446Z,45.90
2019-04-21T08:23:13.182Z,45.90
2019-04-21T08:25:34.874Z,46.40
2019-04-21T08:28:05.465Z,46.60
2019-04-21T08:30:47.795Z,46.60
2019-04-21T08:33:16.248Z,47.00
2019-04-21T08:38:16.519Z,47.30
2019-04-21T08:40:40.951Z,48.00
2019-04-21T08:43:20.835Z,48.60
2019-04-21T08:45:52.750Z,48.10
2019-04-21T08:48:22.791Z,47.40
2019-04-21T08:50:53.964Z,47.00
2019-04-21T08:53:24.720Z,46.70
2019-04-21T08:56:16.458Z,46.70
2019-04-21T08:59:22.196Z,47.10
2019-04-21T09:04:26.163Z,46.70
2019-04-21T09:09:31.534Z,46.80
2019-04-21T09:12:01.701Z,47.30
2019-04-21T09:14:35.490Z,47.50
2019-04-21T09:17:01.665Z,47.40
2019-04-21T09:19:44.296Z,47.90
2019-04-21T09:22:05.771Z,48.00
2019-04-21T09:24:41.266Z,48.60
2019-04-21T09:27:10.046Z,48.40
2019-04-21T09:29:32.541Z,48.60
2019-04-21T09:31:59.463Z,48.60
2019-04-21T09:34:33.254Z,48.40
2019-04-21T09:37:16.453Z,48.40
2019-04-21T09:39:33.730Z,48.60
2019-04-21T09:42:06.546Z,48.10
2019-04-21T09:44:40.477Z,48.00
2019-04-21T09:47:10.380Z,48.00
2019-04-21T09:49:41.896Z,48.30
2019-04-21T09:52:18.561Z,47.90
2019-04-21T09:54:54.801Z,47.80
2019-04-21T09:57:27.651Z,46.40
2019-04-21T09:59:55.852Z,46.80
2019-04-21T10:02:32.878Z,47.40
2019-04-21T10:04:52.746Z,47.50
2019-04-21T10:07:29.904Z,47.00
2019-04-21T10:09:54.902Z,46.60
2019-04-21T10:12:25.620Z,46.20
2019-04-21T10:14:55.896Z,43.30
2019-04-21T10:17:30.364Z,39.30
2019-04-21T10:20:00.802Z,35.30
2019-04-21T10:22:31.100Z,35.00
2019-04-21T10:25:02.855Z,34.20
2019-04-21T10:27:33.298Z,34.40
2019-04-21T10:30:03.780Z,34.30
2019-04-21T10:32:34.457Z,34.30
2019-04-21T10:35:05.546Z,34.00
2019-04-21T10:37:47.274Z,34.10
2019-04-21T10:40:09.554Z,33.10
2019-04-21T10:42:40.437Z,32.20
2019-04-21T10:45:11.212Z,31.90
2019-04-21T10:47:42.950Z,31.90
2019-04-21T10:50:14.184Z,31.60
2019-04-21T10:53:06.921Z,31.70
2019-04-21T10:55:54.287Z,31.90
2019-04-21T10:58:18.656Z,30.70
2019-04-21T11:00:51.560Z,31.20
2019-04-21T11:03:44.745Z,31.20
2019-04-21T11:06:18.907Z,30.00
2019-04-21T11:08:52.391Z,30.00
2019-04-21T11:11:21.773Z,30.00
2019-04-21T11:13:52.637Z,30.00
2019-04-21T11:16:23.529Z,40.50
2019-04-21T11:18:53.816Z,37.20
2019-04-21T11:21:24.944Z,35.70
2019-04-21T11:23:56.452Z,35.30
2019-04-21T11:26:29.767Z,34.50
2019-04-21T11:29:03.145Z,35.50
2019-04-21T11:31:33.535Z,35.00
2019-04-21T11:34:05.028Z,34.90
2019-04-21T11:36:35.388Z,35.60
2019-04-21T11:39:31.583Z,34.90
2019-04-21T11:41:54.051Z,34.60
2019-04-21T11:44:24.837Z,34.30
2019-04-21T11:46:56.360Z,34.00
2019-04-21T11:49:30.220Z,34.10
2019-04-21T11:51:58.835Z,34.00
2019-04-21T11:54:28.996Z,34.50
2019-04-21T11:57:01.817Z,34.30
2019-04-21T11:59:31.157Z,33.80
2019-04-21T12:02:01.580Z,33.60
2019-04-21T12:04:31.840Z,34.30
2019-04-21T12:07:02.078Z,33.30
2019-04-21T12:09:33.342Z,33.00
2019-04-21T12:12:05.257Z,33.20
2019-04-21T12:14:36.399Z,33.50
2019-04-21T12:17:07.935Z,32.30
2019-04-21T12:19:38.733Z,32.70
2019-04-21T12:22:18.210Z,32.30
2019-04-21T12:24:42.899Z,33.00
2019-04-21T12:27:14.023Z,32.80
2019-04-21T12:29:44.247Z,32.30
2019-04-21T12:32:40.035Z,31.70
2019-04-21T12:35:12.181Z,31.90
2019-04-21T12:37:42.821Z,32.40
2019-04-21T12:40:14.428Z,32.70
2019-04-21T12:42:45.520Z,31.50
2019-04-21T12:45:17.306Z,31.20
2019-04-21T12:47:50.328Z,31.40
2019-04-21T12:50:19.854Z,31.30
2019-04-21T12:52:50.031Z,31.10
2019-04-21T12:55:26.165Z,30.80
2019-04-21T12:57:53.198Z,31.20
2019-04-21T13:00:25.248Z,32.00
2019-04-21T13:02:56.073Z,31.00
2019-04-21T13:05:27.476Z,30.10
2019-04-21T13:08:00.115Z,29.80
2019-04-21T13:10:30.691Z,30.40
2019-04-21T13:13:01.794Z,30.00
2019-04-21T13:15:33.539Z,30.00
2019-04-21T13:18:04.637Z,30.10
2019-04-21T13:20:35.938Z,29.80
2019-04-21T13:23:06.182Z,29.80
2019-04-21T13:25:36.536Z,30.00
2019-04-21T13:28:07.048Z,30.00
2019-04-21T13:30:38.094Z,30.30
2019-04-21T13:33:09.206Z,30.50
2019-04-21T13:35:41.221Z,31.00
2019-04-21T13:38:20.022Z,31.00
2019-04-21T13:41:10.464Z,31.30
2019-04-21T13:43:25.230Z,32.60
2019-04-21T13:45:55.627Z,32.60
2019-04-21T13:48:26.486Z,32.20
2019-04-21T13:50:57.321Z,34.50
2019-04-21T13:53:28.515Z,31.60
2019-04-21T13:56:00.305Z,32.30
2019-04-21T13:58:30.651Z,32.80
2019-04-21T14:01:00.999Z,31.30
2019-04-21T14:03:31.440Z,31.70
2019-04-21T14:06:02.518Z,33.00
2019-04-21T14:08:33.465Z,33.00
2019-04-21T14:11:05.026Z,32.40
2019-04-21T14:13:36.455Z,32.90
2019-04-21T14:16:08.126Z,32.00
2019-04-21T14:18:38.887Z,32.60
2019-04-21T14:21:09.229Z,32.50
2019-04-21T14:23:44.565Z,32.90
2019-04-21T14:26:11.981Z,34.70
2019-04-21T14:28:43.010Z,33.00
2019-04-21T14:31:14.461Z,33.20
2019-04-21T14:33:45.870Z,32.60
2019-04-21T14:36:16.791Z,32.20
2019-04-21T14:38:47.063Z,31.70
2019-04-21T14:41:17.874Z,32.30
2019-04-21T14:43:48.123Z,31.60
2019-04-21T14:46:42.821Z,31.20
2019-04-21T14:49:29.097Z,31.20
2019-04-21T14:52:12.937Z,31.30
2019-04-21T14:55:08.927Z,31.30
2019-04-21T14:57:39.329Z,32.10
2019-04-21T15:00:15.461Z,31.20
2019-04-21T15:02:45.721Z,31.20
2019-04-21T15:05:15.926Z,31.20
2019-04-21T15:07:46.181Z,31.80
2019-04-21T15:10:20.624Z,31.30
2019-04-21T15:12:49.713Z,31.30
2019-04-21T15:15:20.230Z,30.40
2019-04-21T15:17:51.548Z,30.10
2019-04-21T15:20:23.382Z,30.10
2019-04-21T15:22:54.486Z,31.80
2019-04-21T15:25:26.055Z,30.50
2019-04-21T15:27:56.936Z,30.80
2019-04-21T15:30:27.153Z,32.50
2019-04-21T15:32:58.118Z,32.00
2019-04-21T15:35:29.003Z,32.20
2019-04-21T15:37:59.997Z,33.40
2019-04-21T15:40:40.746Z,31.70
2019-04-21T15:43:02.467Z,34.80
2019-04-21T15:45:32.882Z,31.40
2019-04-21T15:48:04.196Z,31.30
2019-04-21T15:50:35.684Z,43.70
2019-04-21T15:53:07.732Z,40.60
2019-04-21T15:55:57.308Z,33.80
2019-04-21T15:58:46.393Z,38.70
2019-04-21T16:01:24.884Z,32.70
2019-04-21T16:03:58.307Z,40.00
2019-04-21T16:06:27.718Z,36.20
2019-04-21T16:09:00.881Z,34.80
2019-04-21T16:11:31.484Z,35.50
2019-04-21T16:14:02.023Z,35.20
2019-04-21T16:16:33.827Z,36.40
2019-04-21T16:19:04.276Z,34.30
2019-04-21T16:21:38.312Z,34.20
2019-04-21T16:24:06.860Z,37.60
2019-04-21T16:26:38.437Z,34.30
2019-04-21T16:29:09.089Z,37.10
2019-04-21T16:31:40.355Z,38.00
2019-04-21T16:34:10.702Z,38.40
2019-04-21T16:36:41.350Z,37.20
2019-04-21T16:39:11.628Z,33.00
2019-04-21T16:41:42.513Z,32.60
2019-04-21T16:44:13.399Z,34.50
2019-04-21T16:46:43.761Z,33.40
2019-04-21T16:49:14.026Z,33.20
2019-04-21T16:51:46.352Z,33.50
2019-04-21T16:54:29.051Z,39.00
2019-04-21T16:57:12.022Z,33.10
2019-04-21T16:59:46.576Z,33.30
2019-04-21T17:02:16.906Z,33.20
2019-04-21T17:04:48.485Z,32.60
2019-04-21T17:07:19.951Z,33.10
2019-04-21T17:09:50.687Z,33.10
2019-04-21T17:12:22.766Z,34.30
2019-04-21T17:15:08.010Z,32.50
2019-04-21T17:17:49.670Z,31.80
2019-04-21T17:20:13.904Z,33.40
2019-04-21T17:22:31.405Z,32.10
2019-04-21T17:25:02.639Z,33.50
2019-04-21T17:27:33.382Z,35.40
2019-04-21T17:30:04.346Z,34.20
2019-04-21T17:32:40.098Z,33.50
2019-04-21T17:35:08.057Z,33.00
2019-04-21T17:37:38.387Z,32.90
2019-04-21T17:40:09.406Z,33.60
2019-04-21T17:42:46.521Z,34.70
2019-04-21T17:45:13.300Z,34.80
2019-04-21T17:47:50.705Z,34.60
2019-04-21T17:50:55.726Z,35.20
2019-04-21T17:53:42.888Z,33.10
2019-04-21T17:56:31.744Z,35.80
2019-04-21T17:58:58.473Z,34.20
2019-04-21T18:01:35.316Z,35.40
2019-04-21T18:04:12.689Z,34.60
2019-04-21T18:06:44.314Z,35.80
2019-04-21T18:09:25.523Z,36.20
2019-04-21T18:11:51.073Z,36.90
2019-04-21T18:14:01.754Z,36.60
2019-04-21T18:16:39.239Z,37.70
2019-04-21T18:19:04.705Z,36.90
2019-04-21T18:21:51.388Z,38.20
2019-04-21T18:24:22.432Z,38.20
2019-04-21T18:26:56.587Z,38.40
2019-04-21T18:29:23.466Z,39.00
2019-04-21T18:31:54.601Z,39.80
2019-04-21T18:34:47.826Z,39.70
2019-04-21T18:37:43.019Z,39.10
2019-04-21T18:40:16.756Z,40.80
2019-04-21T18:43:16.028Z,39.80
2019-04-21T18:48:34.449Z,38.90
2019-04-21T18:51:41.425Z,40.30
2019-04-21T18:54:31.488Z,39.50
2019-04-21T18:56:54.970Z,41.10
2019-04-21T18:59:14.114Z,40.70
2019-04-21T19:01:51.533Z,41.10
2019-04-21T19:04:20.448Z,42.00
2019-04-21T19:07:02.933Z,41.00
2019-04-21T19:10:07.055Z,40.90
2019-04-21T19:12:16.486Z,41.00
2019-04-21T19:14:39.830Z,40.80
2019-04-21T19:17:48.558Z,40.50
2019-04-21T19:20:09.004Z,40.30
2019-04-21T19:22:15.257Z,40.90
2019-04-21T19:24:55.605Z,40.70
2019-04-21T19:27:23.814Z,41.70
2019-04-21T19:30:18.932Z,41.30
2019-04-21T19:32:23.925Z,42.20
2019-04-21T19:34:41.319Z,42.30
2019-04-21T19:37:17.113Z,42.60
2019-04-21T19:39:57.910Z,41.80
2019-04-21T19:42:25.771Z,41.60
2019-04-21T19:45:07.692Z,42.00
2019-04-21T19:47:41.587Z,42.70
2019-04-21T19:50:11.192Z,42.40
2019-04-21T19:52:38.076Z,42.60
2019-04-21T19:54:56.699Z,43.70
2019-04-21T19:57:29.170Z,43.40
2019-04-21T20:00:03.781Z,43.70
2019-04-21T20:02:32.238Z,43.80
2019-04-21T20:05:07.928Z,43.00
2019-04-21T20:07:49.496Z,43.50
2019-04-21T20:10:31.400Z,43.30
2019-04-21T20:13:01.180Z,44.10
2019-04-21T20:15:37.454Z,43.80
2019-04-21T20:17:58.541Z,44.60
2019-04-21T20:20:15.614Z,44.50
2019-04-21T20:22:50.508Z,44.60
2019-04-21T20:25:21.081Z,45.00
2019-04-21T20:27:59.097Z,45.20
2019-04-21T20:30:40.779Z,44.30
2019-04-21T20:33:36.969Z,44.50
2019-04-21T20:35:54.802Z,45.10
2019-04-21T20:38:12.724Z,44.60
2019-04-21T20:40:41.245Z,44.60
2019-04-21T20:43:25.496Z,44.90
2019-04-21T20:45:56.310Z,44.50
2019-04-21T20:48:13.972Z,44.80
2019-04-21T20:50:57.258Z,45.30
2019-04-21T20:53:27.391Z,45.70
2019-04-21T20:55:57.483Z,44.70
2019-04-21T20:58:28.467Z,45.30
2019-04-21T21:01:22.530Z,46.00
2019-04-21T21:03:35.233Z,46.00
2019-04-21T21:06:01.447Z,46.10
2019-04-21T21:08:40.317Z,46.20
2019-04-21T21:11:07.073Z,46.60
2019-04-21T21:13:44.749Z,46.70
2019-04-21T21:16:35.149Z,46.70
2019-04-21T21:19:08.427Z,46.70
2019-04-21T21:21:15.296Z,47.40
2019-04-21T21:23:49.678Z,48.10
2019-04-21T21:26:25.790Z,47.90
2019-04-21T21:28:49.919Z,47.60
2019-04-21T21:31:30.703Z,47.80
2019-04-21T21:34:02.084Z,48.20
2019-04-21T21:36:33.844Z,48.10
2019-04-21T21:39:01.278Z,48.80
2019-04-21T21:41:24.386Z,49.10
2019-04-21T21:43:58.108Z,49.40
2019-04-21T21:46:38.340Z,49.80
2019-04-21T21:49:03.074Z,50.40
2019-04-21T21:51:42.234Z,50.80
2019-04-21T21:53:57.077Z,51.10
2019-04-21T21:56:28.766Z,51.70
2019-04-21T21:59:01.252Z,52.20
2019-04-21T22:01:37.948Z,52.60
2019-04-21T22:04:10.998Z,52.70
2019-04-21T22:06:42.117Z,52.80
2019-04-21T22:09:10.330Z,53.40
2019-04-21T22:11:42.073Z,53.70
2019-04-21T22:14:22.944Z,53.70
2019-04-21T22:17:00.989Z,54.00
2019-04-21T22:19:36.621Z,53.80
2019-04-21T22:22:04.161Z,54.00
2019-04-21T22:24:35.151Z,54.40
2019-04-21T22:26:52.669Z,54.50
2019-04-21T22:29:23.494Z,54.50
2019-04-21T22:32:04.311Z,55.20
2019-04-21T22:34:31.410Z,54.60
2019-04-21T22:37:16.666Z,53.90
2019-04-21T22:39:49.651Z,53.80
2019-04-21T22:42:11.431Z,53.60
2019-04-21T22:44:34.422Z,53.30
2019-04-21T22:47:12.102Z,53.60
2019-04-21T22:49:36.919Z,53.50
2019-04-21T22:52:11.090Z,54.00
2019-04-21T22:54:42.796Z,54.40
2019-04-21T22:57:16.605Z,55.00
2019-04-21T22:59:46.346Z,55.20
2019-04-21T23:02:21.034Z,55.50
2019-04-21T23:04:51.381Z,55.50
2019-04-21T23:07:22.135Z,55.70
2019-04-21T23:09:51.457Z,55.90
2019-04-21T23:12:28.079Z,56.00
2019-04-21T23:15:03.443Z,55.20
2019-04-21T23:17:46.584Z,55.50
2019-04-21T23:20:17.639Z,55.80
2019-04-21T23:22:58.366Z,55.90
2019-04-21T23:25:18.162Z,55.50
2019-04-21T23:27:53.903Z,55.20
2019-04-21T23:30:33.817Z,55.60
2019-04-21T23:32:48.819Z,55.50
2019-04-21T23:35:18.346Z,55.40
2019-04-21T23:37:50.963Z,55.20
2019-04-21T23:40:18.054Z,55.20
2019-04-21T23:42:47.154Z,54.70
2019-04-21T23:45:18.381Z,54.80
2019-04-21T23:48:01.921Z,54.90
2019-04-21T23:50:34.079Z,55.00
2019-04-21T23:52:53.477Z,55.20
2019-04-21T23:55:23.672Z,55.20
2019-04-21T23:58:04.942Z,55.20
